Terminal Aerodrome Forecast
Issued by NWS

Home | Current Version | Previous Version | Text Only | Print | Product List | Glossary On
Versions: 1 2 3 4 5 6 7 8 9 10 11 12 13 14 15 16 17 18
000
FTUS45 KTFX 301132
TAFLWT
TAF
KLWT 301132Z 3012/3112 10006KT P6SM BKN150
     FM301800 08008KT P6SM -SHRA SCT050 OVC090
      TEMPO 3021/3101 VRB20G40KT 5SM TSRA OVC035CB
     FM310200 VRB06KT P6SM VCSH SCT025 OVC040
     FM310900 14005KT 2SM BR OVC015=

USA.gov is the U.S. government's official web portal to all federal, state and local government web resources and services.